Fairdale, West Virginia
Current Conditions -  °F | °C
As of 11:05 PM on Sunday 23 Nov 2014 (Local Time) from KBKW Reporting Station
Scattered Clouds Scattered Clouds  
Wind Chill: 54°   Ceiling: Unl
Heat Index: 54°   Visibility: 10mi
Dew Point: 49°   Wind: 15mph
Humidity: 83%   Direction: 150°SSE
Pressure: 29.61"   Gusts: 24mph
Location:  37.78°N, 81.36°W
Report Text: KBKW 240405Z AUTO 15013G21KT 10SM FEW015 SCT021 12/09 A2961 RMK AO2 T01220094
Loading
Personal Weather Stations






























Interactive Weather Map New forecast layout! Learn more

10-Day Weather Forecast

Advertisements
Track Severe Weather on mobile